Time;durP1;ratioP1;P1;durP2;ratioP2;P2;SDS_P1;SDS_P2;PMS_P1;PMS_P2;Temp;Humidity;BMP_temperature;BMP_pressure;BME280_temperature;BME280_humidity;BME280_pressure;Samples;Min_cycle;Max_cycle;Signal;HPM_P1;HPM_P2
2023/02/11 00:01:13;;;;;;;102.58;92.50;;;;;;;1.13;90.29;101572.44;1684911;85;25356;-58
2023/02/11 00:03:40;;;;;;;102.58;92.30;;;;;;;1.13;90.32;101563.11;1684626;84;25639;-60
2023/02/11 00:06:10;;;;;;;104.12;91.20;;;;;;;1.12;90.29;101564.94;1685001;85;25639;-58
2023/02/11 00:08:38;;;;;;;102.50;92.15;;;;;;;1.13;91.14;101565.25;1684874;85;27429;-59
2023/02/11 00:11:06;;;;;;;101.53;90.65;;;;;;;1.13;90.32;101560.45;1684786;84;25483;-58
2023/02/11 00:13:33;;;;;;;100.62;89.77;;;;;;;1.13;90.27;101563.92;1684881;85;25575;-58
2023/02/11 00:15:59;;;;;;;101.82;90.95;;;;;;;1.14;90.33;101562.87;1684817;85;25787;-59
2023/02/11 00:18:27;;;;;;;99.20;89.22;;;;;;;1.15;90.43;101563.70;1684894;85;25429;-59
2023/02/11 00:20:54;;;;;;;66.72;60.03;;;;;;;1.15;90.22;101552.52;1685136;85;28163;-60
2023/02/11 00:23:20;;;;;;;96.53;87.17;;;;;;;1.15;90.49;101542.39;1684771;85;25482;-60
2023/02/11 00:25:46;;;;;;;98.07;88.87;;;;;;;1.15;90.19;101539.72;1696417;84;25458;-60
2023/02/11 00:28:13;;;;;;;99.50;89.52;;;;;;;1.15;90.09;101539.72;1684796;84;25669;-59
2023/02/11 00:30:40;;;;;;;100.02;90.10;;;;;;;1.14;90.23;101537.55;1684928;85;25579;-60
2023/02/11 00:33:06;;;;;;;102.58;92.08;;;;;;;1.15;89.95;101534.39;1685152;85;27935;-60
2023/02/11 00:35:33;;;;;;;96.10;86.65;;;;;;;1.14;90.30;101530.89;1684923;85;25544;-60
2023/02/11 00:37:59;;;;;;;100.65;90.28;;;;;;;1.15;89.89;101531.20;1672630;85;25522;-60
2023/02/11 00:40:27;;;;;;;98.27;88.00;;;;;;;1.13;89.83;101522.61;1684765;85;27809;-58
2023/02/11 00:42:53;;;;;;;99.52;89.17;;;;;;;1.14;89.90;101516.75;1672865;85;25453;-58
2023/02/11 00:45:20;;;;;;;99.47;89.90;;;;;;;1.15;89.82;101509.08;1684790;84;27329;-58
2023/02/11 00:47:47;;;;;;;100.00;90.20;;;;;;;1.14;89.79;101509.56;1684786;85;25581;-58
2023/02/11 00:50:15;;;;;;;95.87;86.53;;;;;;;1.14;89.74;101503.43;1684881;85;25466;-59
2023/02/11 00:52:41;;;;;;;97.45;88.05;;;;;;;1.14;89.61;101493.58;1684844;85;25683;-58
2023/02/11 00:55:08;;;;;;;93.62;84.80;;;;;;;1.15;89.62;101485.89;1684853;85;25569;-60
2023/02/11 00:57:35;;;;;;;92.27;83.27;;;;;;;1.14;89.46;101473.59;1695571;84;27932;-59
2023/02/11 01:00:04;;;;;;;91.05;81.55;;;;;;;1.17;89.27;101461.69;1695457;84;25453;-61
2023/02/11 01:02:31;;;;;;;64.53;53.58;;;;;;;1.17;89.20;101447.03;1695784;83;25458;-59
2023/02/11 01:04:58;;;;;;;36.85;16.05;;;;;;;1.19;89.06;101443.63;1695505;84;26144;-59
2023/02/11 01:07:28;;;;;;;41.98;15.85;;;;;;;1.18;88.90;101442.02;1701192;83;25549;-59
2023/02/11 01:09:55;;;;;;;27.85;13.25;;;;;;;1.20;88.85;101441.27;1685956;85;27245;-59
2023/02/11 01:12:22;;;;;;;38.92;16.48;;;;;;;1.19;88.76;101443.63;1685771;83;25667;-57
2023/02/11 01:14:49;;;;;;;35.52;16.48;;;;;;;1.21;88.66;101437.55;1685818;84;25620;-57
2023/02/11 01:17:16;;;;;;;39.13;17.95;;;;;;;1.19;88.66;101433.80;1685774;85;25972;-58
2023/02/11 01:19:43;;;;;;;41.85;18.70;;;;;;;1.21;88.49;101430.89;1685854;85;25452;-58
2023/02/11 01:22:09;;;;;;;41.58;17.92;;;;;;;1.19;88.42;101414.31;1685890;83;27394;-56
2023/02/11 01:24:35;;;;;;;36.95;17.52;;;;;;;1.18;88.49;101416.17;1685745;83;25590;-60
2023/02/11 01:27:02;;;;;;;44.58;18.73;;;;;;;1.18;88.40;101390.05;1685808;85;25632;-58
2023/02/11 01:29:29;;;;;;;41.55;16.25;;;;;;;1.17;88.21;101385.73;1685782;85;25558;-61
2023/02/11 01:31:56;;;;;;;40.85;17.37;;;;;;;1.14;88.10;101375.51;1685838;85;25483;-58
2023/02/11 01:34:22;;;;;;;34.92;15.68;;;;;;;1.14;88.15;101376.84;1685775;85;29642;-58
2023/02/11 01:36:48;;;;;;;40.28;16.65;;;;;;;1.13;88.19;101361.91;1685700;83;26001;-58
2023/02/11 01:39:14;;;;;;;39.97;16.57;;;;;;;1.11;88.02;101354.93;1685838;83;29820;-58
2023/02/11 01:41:40;;;;;;;42.23;17.05;;;;;;;1.09;88.01;101353.01;1685840;85;25627;-58
2023/02/11 01:44:36;;;;;;;38.60;15.93;;;;;;;1.08;88.08;101368.69;1685798;85;25387;-58
2023/02/11 01:47:05;;;;;;;32.95;15.03;;;;;;;1.08;88.07;101371.88;1685895;83;28418;-58
2023/02/11 01:49:37;;;;;;;36.33;15.85;;;;;;;1.06;88.17;101369.95;1685723;84;25467;-59
2023/02/11 01:52:18;;;;;;;35.25;15.83;;;;;;;1.06;88.03;101381.42;1685894;83;25632;-59
2023/02/11 01:57:41;;;;;;;39.13;15.83;;;;;;;1.05;88.00;101381.11;1690164;84;25598;-59
2023/02/11 02:00:15;;;;;;;41.68;16.67;;;;;;;1.07;88.03;101372.91;1690321;84;28069;-59
2023/02/11 02:03:01;;;;;;;38.28;17.50;;;;;;;1.06;87.96;101356.63;1690203;84;25391;-59
2023/02/11 02:05:52;;;;;;;38.08;14.80;;;;;;;1.06;88.05;101344.64;1690372;84;25563;-58
2023/02/11 02:08:38;;;;;;;36.23;15.30;;;;;;;1.05;87.86;101326.48;1690404;84;25598;-58
2023/02/11 02:11:06;;;;;;;33.45;16.00;;;;;;;1.05;87.97;101332.34;1690373;84;25580;-59
2023/02/11 02:13:34;;;;;;;37.78;15.28;;;;;;;1.06;87.78;101320.66;1690268;84;27752;-58
2023/02/11 02:16:07;;;;;;;37.75;15.53;;;;;;;1.03;87.81;101309.91;1690391;84;25456;-57
2023/02/11 02:18:54;;;;;;;33.25;14.43;;;;;;;1.05;87.81;101313.69;1689741;84;25411;-58
2023/02/11 02:21:53;;;;;;;34.83;14.78;;;;;;;1.04;87.84;101310.22;1690233;84;25675;-59
2023/02/11 02:25:12;;;;;;;38.50;16.15;;;;;;;1.06;87.69;101284.16;1690098;84;25433;-58
2023/02/11 02:27:50;;;;;;;40.73;13.62;;;;;;;1.06;87.69;101284.16;1670680;84;27414;-60
2023/02/11 02:30:54;;;;;;;38.88;13.65;;;;;;;1.07;87.70;101279.14;1690466;84;25563;-59
2023/02/11 02:33:38;;;;;;;36.42;14.13;;;;;;;1.08;87.62;101277.28;1688447;84;25553;-57
2023/02/11 02:36:19;;;;;;;41.73;14.33;;;;;;;1.09;87.70;101278.89;1688204;84;26085;-58
2023/02/11 02:39:07;;;;;;;36.73;14.43;;;;;;;1.09;87.61;101268.23;1689516;84;25592;-59
2023/02/11 02:41:36;;;;;;;40.52;14.53;;;;;;;1.10;87.49;101269.34;1689555;84;27430;-59
2023/02/11 02:44:06;;;;;;;30.10;13.88;;;;;;;1.11;87.45;101262.99;1690377;84;25553;-57
2023/02/11 02:46:55;;;;;;;20.60;9.68;;;;;;;1.10;87.42;101258.69;1690598;84;25565;-58
2023/02/11 02:49:21;;;;;;;24.07;10.03;;;;;;;1.12;87.32;101231.81;1719680;83;25617;-58
2023/02/11 02:52:24;;;;;;;39.98;15.13;;;;;;;1.13;87.29;101236.66;1718831;82;25551;-58
2023/02/11 02:55:42;;;;;;;33.00;13.45;;;;;;;1.13;87.24;101236.66;1684192;85;27725;-56
2023/02/11 02:58:43;;;;;;;31.17;12.95;;;;;;;1.14;87.21;101248.92;1685480;84;25810;-57
2023/02/11 03:01:35;;;;;;;38.33;14.33;;;;;;;1.14;87.15;101237.73;1685526;84;25486;-58
2023/02/11 03:04:27;;;;;;;35.40;12.55;;;;;;;1.15;87.09;101240.70;1669642;85;25984;-59
2023/02/11 03:07:11;;;;;;;29.52;11.57;;;;;;;1.15;87.07;101234.05;1614715;88;25690;-59
2023/02/11 03:10:03;;;;;;;29.30;12.78;;;;;;;1.16;87.03;101240.18;1614797;88;27405;-60
2023/02/11 03:12:33;;;;;;;36.65;12.60;;;;;;;1.17;86.95;101224.50;1614700;88;25621;-58
2023/02/11 03:15:04;;;;;;;28.55;13.28;;;;;;;1.18;86.92;101228.80;1614756;88;25738;-58
2023/02/11 03:17:34;;;;;;;30.48;12.00;;;;;;;1.18;86.96;101231.47;1614794;88;25634;-57
2023/02/11 03:20:04;;;;;;;39.13;13.20;;;;;;;1.18;86.81;101229.61;1613731;88;25617;-58
2023/02/11 03:22:45;;;;;;;38.50;13.05;;;;;;;1.18;86.76;101211.48;1612314;89;27362;-59
2023/02/11 03:25:13;;;;;;;33.70;12.98;;;;;;;1.18;86.67;101198.16;1610782;89;25508;-58
2023/02/11 03:28:03;;;;;;;31.50;12.35;;;;;;;1.19;86.69;101203.76;1612323;87;25710;-58
2023/02/11 03:30:41;;;;;;;32.00;12.70;;;;;;;1.19;86.61;101187.77;1616420;88;25682;-57
2023/02/11 03:33:13;;;;;;;33.02;12.40;;;;;;;1.20;86.55;101189.41;1648250;86;25558;-58
2023/02/11 03:35:53;;;;;;;31.70;12.45;;;;;;;1.19;86.49;101187.77;1648455;87;27382;-58
2023/02/11 03:38:33;;;;;;;30.23;11.20;;;;;;;1.19;86.44;101177.11;1647752;86;25469;-58
2023/02/11 03:41:04;;;;;;;35.90;12.73;;;;;;;1.18;86.37;101172.84;1662299;85;25465;-58
2023/02/11 03:46:25;;;;;;;31.25;11.80;;;;;;;1.18;86.27;101156.84;1640221;87;25463;-58
2023/02/11 03:48:56;;;;;;;28.50;12.65;;;;;;;1.18;86.16;101158.98;1626244;88;27993;-58
2023/02/11 03:51:27;;;;;;;31.02;12.63;;;;;;;1.17;86.10;101162.67;1638224;87;25535;-58
2023/02/11 03:53:57;;;;;;;28.55;11.68;;;;;;;1.18;86.08;101150.98;1626674;88;25486;-57
2023/02/11 03:56:28;;;;;;;29.25;11.97;;;;;;;1.18;85.86;101154.18;1638312;87;25872;-58
2023/02/11 03:58:57;;;;;;;29.37;12.58;;;;;;;1.19;85.83;101142.47;1626192;88;25656;-58
2023/02/11 04:01:24;;;;;;;30.23;12.47;;;;;;;1.19;85.73;101136.63;1638320;87;27424;-58
2023/02/11 04:03:50;;;;;;;27.40;11.68;;;;;;;1.18;85.68;101146.19;1626307;88;25529;-58
2023/02/11 04:06:16;;;;;;;30.72;12.90;;;;;;;1.18;85.45;101136.33;1638367;87;25462;-58
2023/02/11 04:08:44;;;;;;;26.97;12.98;;;;;;;1.18;85.31;101120.34;1626146;88;27876;-57
2023/02/11 04:11:10;;;;;;;26.30;11.35;;;;;;;1.17;85.11;101108.57;1638291;87;25468;-57
2023/02/11 04:13:36;;;;;;;26.55;11.50;;;;;;;1.18;85.16;101110.20;1626594;88;27766;-57
2023/02/11 04:16:03;;;;;;;32.95;13.38;;;;;;;1.17;85.04;101100.05;1638198;87;25706;-58
2023/02/11 04:18:29;;;;;;;38.60;12.53;;;;;;;1.18;84.61;101106.20;1628929;88;25684;-58
2023/02/11 04:20:56;;;;;;;28.60;13.30;;;;;;;1.17;84.81;101091.25;1638365;87;25622;-57
2023/02/11 04:23:23;;;;;;;34.25;13.35;;;;;;;1.18;84.71;101101.69;1637695;86;25446;-57
2023/02/11 04:25:50;;;;;;;33.00;13.98;;;;;;;1.16;84.66;101098.44;1663378;86;27403;-58
2023/02/11 04:28:17;;;;;;;31.50;12.33;;;;;;;1.16;84.18;101090.45;1663328;86;25466;-59
2023/02/11 04:30:45;;;;;;;28.17;13.20;;;;;;;1.17;84.39;101087.25;1663433;86;25418;-59
2023/02/11 04:33:12;;;;;;;28.85;13.00;;;;;;;1.17;84.17;101084.58;1642882;86;26140;-59
2023/02/11 04:35:39;;;;;;;41.15;14.85;;;;;;;1.17;84.04;101072.06;1663427;86;25693;-59
2023/02/11 04:38:06;;;;;;;29.48;12.00;;;;;;;1.16;83.58;101073.12;1663417;86;27341;-60
2023/02/11 04:40:33;;;;;;;31.85;13.10;;;;;;;1.18;83.86;101084.36;1663272;86;25815;-60
2023/02/11 04:43:00;;;;;;;28.95;13.53;;;;;;;1.18;83.76;101067.56;1663410;86;25522;-56
2023/02/11 04:45:27;;;;;;;35.75;14.40;;;;;;;1.17;83.71;101064.06;1682186;84;26186;-60
2023/02/11 04:47:53;;;;;;;41.18;15.25;;;;;;;1.14;83.30;101051.19;1699558;84;25490;-60
2023/02/11 04:50:19;;;;;;;31.93;14.23;;;;;;;1.16;83.38;101051.80;1699529;84;28029;-60
2023/02/11 04:52:46;;;;;;;42.55;13.95;;;;;;;1.13;83.25;101040.27;1699468;84;25391;-58
2023/02/11 04:55:13;;;;;;;35.60;13.75;;;;;;;1.11;83.26;101033.02;1699597;84;25617;-60
2023/02/11 04:57:40;;;;;;;37.55;14.80;;;;;;;1.10;83.12;101023.39;1699534;84;26424;-60
2023/02/11 05:00:09;;;;;;;34.23;14.75;;;;;;;1.08;83.10;101002.83;1699621;84;25557;-58
2023/02/11 05:02:35;;;;;;;41.33;15.25;;;;;;;1.06;82.99;101008.91;1699711;84;27332;-58
2023/02/11 05:05:04;;;;;;;39.48;15.32;;;;;;;1.02;83.04;101003.23;1699455;83;26065;-59
2023/02/11 05:07:31;;;;;;;39.55;15.78;;;;;;;1.01;83.00;100996.79;1700179;84;25646;-59
2023/02/11 05:09:57;;;;;;;38.92;15.70;;;;;;;0.98;83.02;101007.89;1699906;84;25586;-58
2023/02/11 05:12:24;;;;;;;34.88;14.90;;;;;;;0.94;82.96;101020.86;1700115;83;25550;-58
2023/02/11 05:14:50;;;;;;;34.23;14.25;;;;;;;0.91;83.01;101012.79;1699994;84;27322;-58
2023/02/11 05:17:17;;;;;;;37.80;15.08;;;;;;;0.90;83.09;101001.03;1699565;84;25514;-60
2023/02/11 05:19:44;;;;;;;44.30;15.15;;;;;;;0.86;83.04;100998.53;1699529;84;25524;-59
2023/02/11 05:22:12;;;;;;;41.85;16.42;;;;;;;0.85;83.16;100991.07;1699576;83;25594;-58
2023/02/11 05:24:39;;;;;;;39.27;15.98;;;;;;;0.85;83.13;100975.59;1699579;84;25494;-59
2023/02/11 05:27:05;;;;;;;42.15;16.55;;;;;;;0.85;83.19;100967.10;1699553;84;27423;-59
2023/02/11 05:29:33;;;;;;;39.20;15.98;;;;;;;0.85;83.03;100947.62;1699520;84;25600;-57
2023/02/11 05:31:59;;;;;;;33.53;14.75;;;;;;;0.87;83.25;100965.52;1699572;84;25604;-58
2023/02/11 05:34:27;;;;;;;37.53;15.63;;;;;;;0.85;83.25;100956.45;1699520;84;25743;-57
2023/02/11 05:36:53;;;;;;;34.95;15.23;;;;;;;0.86;83.27;100954.59;1699566;83;25649;-58
2023/02/11 05:39:19;;;;;;;35.95;15.08;;;;;;;0.87;83.27;100953.03;1699497;84;27281;-57
2023/02/11 05:41:46;;;;;;;42.78;16.30;;;;;;;0.89;83.27;100954.94;1699396;84;25461;-58
2023/02/11 05:44:12;;;;;;;37.50;15.98;;;;;;;0.90;83.20;100953.08;1699542;84;25468;-58
2023/02/11 05:46:39;;;;;;;42.85;16.95;;;;;;;0.91;83.14;100971.50;1697450;84;25684;-58
2023/02/11 05:49:06;;;;;;;36.88;15.98;;;;;;;0.95;83.11;100957.73;1697375;84;25592;-58
2023/02/11 05:51:34;;;;;;;37.88;17.73;;;;;;;0.97;83.03;100951.65;1697265;84;27392;-59
2023/02/11 05:54:01;;;;;;;47.58;17.60;;;;;;;0.98;82.92;100956.75;1697352;84;25773;-59
2023/02/11 05:56:27;;;;;;;41.15;15.50;;;;;;;1.00;82.78;100944.00;1697469;84;25169;-59
2023/02/11 05:58:54;;;;;;;44.10;18.75;;;;;;;1.00;82.70;100938.68;1697271;84;25686;-60
2023/02/11 06:01:21;;;;;;;39.45;16.87;;;;;;;1.03;82.58;100936.09;1663178;84;25580;-60
2023/02/11 06:03:48;;;;;;;39.70;16.77;;;;;;;1.04;82.50;100931.03;1663388;84;27287;-59
2023/02/11 06:06:17;;;;;;;44.45;17.35;;;;;;;1.06;82.63;100930.31;1697494;84;25387;-58
2023/02/11 06:08:44;;;;;;;37.33;17.32;;;;;;;1.08;82.44;100923.69;1697540;84;25790;-59
2023/02/11 06:11:16;;;;;;;38.00;16.12;;;;;;;1.10;82.38;100927.46;1697433;83;26169;-58
2023/02/11 06:13:43;;;;;;;44.23;15.65;;;;;;;1.11;82.26;100924.57;1697460;84;25428;-57
2023/02/11 06:16:10;;;;;;;42.00;16.75;;;;;;;1.13;82.13;100921.67;1697411;84;27382;-58
2023/02/11 06:18:36;;;;;;;34.90;15.55;;;;;;;1.16;81.79;100923.05;1697347;83;25658;-58
2023/02/11 06:21:08;;;;;;;38.40;15.43;;;;;;;1.18;81.89;100918.33;1697420;83;25466;-59
2023/02/11 06:23:37;;;;;;;39.67;15.35;;;;;;;1.19;81.77;100920.77;1697405;84;26388;-57
2023/02/11 06:26:06;;;;;;;39.15;16.55;;;;;;;1.22;81.93;100911.48;1697417;84;25399;-58
2023/02/11 06:28:34;;;;;;;35.78;15.80;;;;;;;1.23;81.88;100913.12;1697429;84;27109;-58
2023/02/11 06:31:08;;;;;;;41.27;15.83;;;;;;;1.25;81.54;100903.83;1697561;84;25674;-59
2023/02/11 06:33:36;;;;;;;38.60;15.98;;;;;;;1.25;81.42;100897.17;1697372;84;25572;-59
2023/02/11 06:36:12;;;;;;;40.00;15.88;;;;;;;1.28;80.94;100897.24;1697380;84;25648;-58
2023/02/11 06:38:40;;;;;;;42.70;18.90;;;;;;;1.30;81.39;100892.48;1696346;84;25547;-59
2023/02/11 06:41:13;;;;;;;40.43;16.73;;;;;;;1.32;81.12;100894.92;1697397;84;27430;-58
2023/02/11 06:43:41;;;;;;;43.28;18.98;;;;;;;1.34;81.05;100887.50;1697439;84;25670;-58
2023/02/11 06:46:10;;;;;;;39.90;19.30;;;;;;;1.35;81.02;100885.94;1698462;84;25465;-58
2023/02/11 06:48:37;;;;;;;43.83;16.82;;;;;;;1.36;80.62;100886.20;1699594;84;25881;-57
2023/02/11 06:51:08;;;;;;;45.00;17.35;;;;;;;1.38;81.00;100880.64;1699699;83;25409;-60
2023/02/11 06:53:40;;;;;;;38.83;17.55;;;;;;;1.38;80.81;100876.64;1699648;84;28010;-57
2023/02/11 06:56:16;;;;;;;39.73;16.93;;;;;;;1.39;80.41;100886.28;1699218;84;25559;-57
2023/02/11 06:58:44;;;;;;;43.30;19.40;;;;;;;1.42;80.65;100895.95;1699661;84;25499;-57
2023/02/11 07:01:14;;;;;;;41.37;20.12;;;;;;;1.43;80.44;100868.26;1699566;84;25835;-58
2023/02/11 07:03:44;;;;;;;38.40;17.48;;;;;;;1.44;80.10;100876.53;1699726;84;25646;-56
2023/02/11 07:06:16;;;;;;;48.20;18.17;;;;;;;1.47;80.80;100863.27;1699612;84;28064;-57
2023/02/11 07:08:44;;;;;;;44.20;18.45;;;;;;;1.49;80.71;100851.84;1699614;83;25601;-58
2023/02/11 07:11:20;;;;;;;39.13;18.37;;;;;;;1.53;80.73;100854.31;1699846;84;25496;-59
2023/02/11 07:13:47;;;;;;;48.98;22.00;;;;;;;1.53;80.32;100863.64;1699588;84;25630;-59
2023/02/11 07:16:17;;;;;;;43.80;19.07;;;;;;;1.56;79.93;100883.18;1699680;84;25664;-60
2023/02/11 07:18:46;;;;;;;43.25;19.02;;;;;;;1.56;80.44;100867.18;1699651;84;27388;-59
2023/02/11 07:21:18;;;;;;;45.17;20.50;;;;;;;1.57;80.34;100868.81;1699692;84;25411;-58
2023/02/11 07:23:47;;;;;;;42.73;18.87;;;;;;;1.57;80.07;100858.68;1699675;83;25666;-58
2023/02/11 07:26:21;;;;;;;52.25;20.92;;;;;;;1.56;80.42;100855.18;1699681;84;26205;-59
2023/02/11 07:28:51;;;;;;;45.90;20.23;;;;;;;1.56;80.49;100859.71;1699777;84;25474;-59
2023/02/11 07:31:23;;;;;;;45.55;18.70;;;;;;;1.54;80.63;100865.28;1699768;84;27916;-59
2023/02/11 07:33:54;;;;;;;49.48;21.42;;;;;;;1.54;80.72;100861.81;1697784;84;25475;-59
2023/02/11 07:36:22;;;;;;;47.05;20.25;;;;;;;1.53;80.70;100852.18;1699648;84;25675;-59
2023/02/11 07:38:49;;;;;;;48.48;22.52;;;;;;;1.51;80.80;100847.08;1699557;84;26232;-58
2023/02/11 07:41:20;;;;;;;54.88;20.08;;;;;;;1.51;80.94;100848.94;1699609;84;25587;-60
2023/02/11 07:43:49;;;;;;;57.53;22.05;;;;;;;1.47;81.14;100838.74;1699678;83;28019;-59
2023/02/11 07:46:28;;;;;;;44.23;20.70;;;;;;;1.46;81.61;100846.47;1698544;84;25581;-61
2023/02/11 07:48:55;;;;;;;58.92;34.88;;;;;;;1.42;81.87;100850.63;1697481;84;25399;-59
2023/02/11 07:51:27;;;;;;;46.00;21.68;;;;;;;1.42;81.87;100850.63;1697285;84;25625;-59
2023/02/11 07:53:57;;;;;;;67.78;57.60;;;;;;;1.38;81.82;100842.83;1697387;84;25644;-59
2023/02/11 07:56:25;;;;;;;55.80;29.85;;;;;;;1.36;82.50;100838.23;1697365;84;27404;-59
2023/02/11 07:58:55;;;;;;;53.38;27.10;;;;;;;1.32;82.57;100843.75;1697271;83;25490;-59
2023/02/11 08:01:27;;;;;;;49.25;26.00;;;;;;;1.31;83.08;100842.11;1697351;84;25405;-59
2023/02/11 08:04:00;;;;;;;50.90;28.05;;;;;;;1.27;83.14;100825.78;1697377;84;25806;-59
2023/02/11 08:06:31;;;;;;;52.83;22.65;;;;;;;1.27;83.24;100850.30;1697357;84;25458;-59
2023/02/11 08:09:11;;;;;;;59.83;25.77;;;;;;;1.22;84.26;100858.98;1697396;84;27363;-59
2023/02/11 08:11:41;;;;;;;49.55;21.37;;;;;;;1.18;84.58;100831.20;1677034;84;25435;-59
2023/02/11 08:14:09;;;;;;;;;;;;;;;1.14;84.74;100828.69;1699907;84;25645;-59
2023/02/11 08:16:37;;;;;;;53.68;24.25;;;;;;;1.12;85.09;100830.78;1697326;83;25642;-59
2023/02/11 08:19:15;;;;;;;37.13;22.77;;;;;;;1.08;85.79;100823.78;1697465;84;25445;-59
2023/02/11 08:21:44;;;;;;;58.23;43.73;;;;;;;1.06;85.53;100836.52;1697411;84;27436;-58
2023/02/11 08:24:14;;;;;;;73.17;51.85;;;;;;;1.04;86.09;100831.13;1697428;84;25580;-58
2023/02/11 08:26:42;;;;;;;60.50;32.58;;;;;;;0.99;87.30;100822.52;1697345;84;25578;-57
2023/02/11 08:29:14;;;;;;;80.03;66.97;;;;;;;0.95;87.60;100819.20;1697244;83;26237;-57
2023/02/11 08:31:45;;;;;;;84.72;74.82;;;;;;;0.93;87.62;100822.09;1697087;84;25707;-59
2023/02/11 08:34:18;;;;;;;76.20;53.63;;;;;;;0.90;87.76;100804.74;1697382;83;28064;-57
2023/02/11 08:36:48;;;;;;;84.00;71.72;;;;;;;0.88;89.51;100792.69;1697279;84;25423;-56
2023/02/11 08:39:19;;;;;;;88.62;74.07;;;;;;;0.84;88.96;100799.00;1697484;84;25482;-56
2023/02/11 08:41:50;;;;;;;109.30;97.55;;;;;;;0.81;89.52;100798.66;1697326;84;26615;-56
2023/02/11 08:44:21;;;;;;;102.12;90.67;;;;;;;0.79;89.35;100794.89;1697468;84;25224;-58
2023/02/11 08:46:51;;;;;;;105.00;94.37;;;;;;;0.79;89.98;100795.42;1669904;83;27121;-57
2023/02/11 08:49:20;;;;;;;108.78;97.42;;;;;;;0.76;89.96;100799.34;1716926;83;25481;-56
2023/02/11 08:51:50;;;;;;;;;;;;;;;0.76;91.75;100794.55;1719413;83;25588;-56
2023/02/11 08:54:18;;;;;;;105.80;94.15;;;;;;;0.73;91.43;100778.49;1694427;84;25610;-57
2023/02/11 08:56:50;;;;;;;105.03;94.25;;;;;;;0.72;91.55;100774.23;1719684;83;25219;-53
2023/02/11 08:59:19;;;;;;;65.62;37.48;;;;;;;0.72;91.24;100762.24;1719790;82;27338;-56
2023/02/11 09:01:46;;;;;;;42.35;19.77;;;;;;;0.75;91.76;100755.13;1719693;83;25785;-56
2023/02/11 09:04:15;;;;;;;64.75;25.68;;;;;;;0.79;92.17;100750.14;1719521;83;25376;-58
2023/02/11 09:06:41;;;;;;;65.30;26.40;;;;;;;0.80;92.73;100745.09;1719408;83;26273;-57
2023/02/11 09:09:12;;;;;;;67.20;26.30;;;;;;;0.81;92.87;100746.72;1719605;83;25454;-57
2023/02/11 09:11:43;;;;;;;59.58;25.80;;;;;;;0.81;93.39;100731.55;1719690;83;27415;-58
2023/02/11 09:14:20;;;;;;;66.97;25.40;;;;;;;0.86;92.86;100754.30;1719563;83;25584;-56
2023/02/11 09:16:48;;;;;;;60.38;27.45;;;;;;;0.90;93.04;100747.98;1719732;83;25576;-58
2023/02/11 09:19:18;;;;;;;63.70;27.05;;;;;;;0.94;93.64;100717.19;1719579;83;26278;-57
2023/02/11 09:21:46;;;;;;;55.80;24.63;;;;;;;0.96;93.46;100727.08;1719672;83;25614;-57
2023/02/11 09:24:17;;;;;;;65.50;28.90;;;;;;;0.99;93.57;100717.29;1719610;83;27406;-55
2023/02/11 09:26:43;;;;;;;69.77;51.55;;;;;;;1.02;94.36;100755.95;1719575;83;25592;-53
2023/02/11 09:29:11;;;;;;;66.77;45.88;;;;;;;1.04;93.25;100745.87;1719580;83;25912;-56
2023/02/11 09:31:40;;;;;;;70.25;46.37;;;;;;;1.06;93.70;100723.29;1719558;83;25732;-56
2023/02/11 09:34:09;;;;;;;60.50;28.07;;;;;;;1.10;93.19;100732.42;1719612;83;25425;-54
2023/02/11 09:36:39;;;;;;;86.92;77.15;;;;;;;1.15;93.94;100742.91;1718378;83;27350;-56
2023/02/11 09:39:15;;;;;;;99.60;89.47;;;;;;;1.17;94.36;100731.49;1719175;83;25623;-56
2023/02/11 09:42:08;;;;;;;106.07;94.92;;;;;;;1.22;93.74;100732.40;1719683;83;25571;-56
2023/02/11 09:44:38;;;;;;;60.08;26.82;;;;;;;1.23;93.82;100732.70;1719673;82;27840;-55
2023/02/11 09:47:30;;;;;;;105.63;94.72;;;;;;;1.27;93.56;100753.82;1722256;83;25416;-54
2023/02/11 09:50:17;;;;;;;105.83;95.47;;;;;;;1.29;93.96;100743.76;1725641;83;27991;-55
2023/02/11 09:53:03;;;;;;;108.00;96.87;;;;;;;1.31;93.42;100766.15;1722975;83;25664;-52
2023/02/11 09:55:41;;;;;;;103.70;93.20;;;;;;;1.34;93.82;100764.35;1725709;83;25418;-55
2023/02/11 09:58:37;;;;;;;54.83;23.57;;;;;;;1.35;94.36;100759.32;1725551;83;25689;-54
2023/02/11 10:01:29;;;;;;;108.47;96.53;;;;;;;1.34;93.73;100741.70;1725473;83;25643;-53
2023/02/11 10:04:15;;;;;;;106.87;95.60;;;;;;;1.35;94.84;100727.87;1725542;83;27312;-52
2023/02/11 10:06:53;;;;;;;107.05;96.15;;;;;;;1.33;94.76;100708.61;1724375;82;27439;-56
2023/02/11 10:09:46;;;;;;;105.83;94.83;;;;;;;1.34;96.67;100717.70;1723975;82;25421;-55
2023/02/11 10:12:45;;;;;;;104.50;94.28;;;;;;;1.37;95.35;100728.44;1725592;83;25731;-56
2023/02/11 10:15:45;;;;;;;106.87;95.35;;;;;;;1.36;95.79;100718.27;1673536;85;25777;-53
2023/02/11 10:18:49;;;;;;;104.35;93.37;;;;;;;1.35;95.90;100731.33;1638951;87;27389;-54
2023/02/11 10:21:39;;;;;;;105.25;94.30;;;;;;;1.33;95.43;100728.09;1639318;87;25762;-54
2023/02/11 10:24:11;;;;;;;105.17;94.70;;;;;;;1.30;96.50;100729.38;1639320;87;25660;-53
2023/02/11 10:26:44;;;;;;;109.92;99.05;;;;;;;1.30;96.32;100695.25;1639394;87;25903;-52
2023/02/11 10:29:36;;;;;;;106.30;95.35;;;;;;;1.27;97.35;100691.19;1639442;87;25627;-53
2023/02/11 10:32:08;;;;;;;107.10;95.97;;;;;;;1.27;98.42;100683.19;1639362;87;27342;-55
2023/02/11 10:34:41;;;;;;;104.83;94.32;;;;;;;1.26;98.37;100674.94;1635922;87;25717;-52
2023/02/11 10:37:12;;;;;;;108.42;97.50;;;;;;;1.23;98.69;100667.41;1627288;88;25719;-58
2023/02/11 10:39:40;;;;;;;106.37;95.20;;;;;;;1.26;97.79;100684.27;1627234;88;27849;-58
2023/02/11 10:42:12;;;;;;;101.80;91.50;;;;;;;1.26;99.31;100662.94;1613370;88;25611;-54
2023/02/11 10:44:47;;;;;;;100.78;90.87;;;;;;;1.26;99.28;100656.27;1627275;88;27567;-55
2023/02/11 10:47:31;;;;;;;102.87;91.87;;;;;;;1.26;98.34;100670.94;1648069;86;25816;-56
2023/02/11 10:50:02;;;;;;;106.70;95.57;;;;;;;1.26;100.00;100652.78;1652656;86;25515;-51
2023/02/11 10:52:31;;;;;;;100.92;91.08;;;;;;;1.28;99.36;100654.71;1652605;86;25931;-54
2023/02/11 10:55:07;;;;;;;107.37;95.90;;;;;;;1.28;100.00;100626.72;1666759;84;25662;-53
2023/02/11 10:57:44;;;;;;;103.42;92.55;;;;;;;1.28;100.00;100638.72;1683033;85;27638;-52
2023/02/11 11:00:32;;;;;;;104.43;93.17;;;;;;;1.28;99.95;100634.72;1682570;84;25844;-52
2023/02/11 11:03:06;;;;;;;108.10;96.70;;;;;;;1.30;100.00;100620.63;1682988;84;29701;-52
2023/02/11 11:05:38;;;;;;;104.05;93.07;;;;;;;1.33;99.83;100623.32;1682944;85;25704;-44
2023/02/11 11:08:08;;;;;;;109.92;95.03;;;;;;;1.34;100.00;100627.62;1682917;85;25625;-45
2023/02/11 11:10:45;;;;;;;104.20;93.07;;;;;;;1.35;100.00;100623.91;1683005;84;27477;-45
2023/02/11 11:13:29;;;;;;;109.00;97.35;;;;;;;1.34;100.00;100619.62;1682486;85;25747;-43
2023/02/11 11:16:16;;;;;;;113.92;101.47;;;;;;;1.35;100.00;100619.92;1682867;84;25629;-44
2023/02/11 11:18:51;;;;;;;114.45;99.30;;;;;;;1.37;100.00;100627.95;1682942;85;26262;-43
2023/02/11 11:21:25;;;;;;;112.47;96.30;;;;;;;1.37;100.00;100640.47;1682644;85;25552;-42
2023/02/11 11:23:56;;;;;;;115.45;98.58;;;;;;;1.37;100.00;100649.27;1683005;85;27305;-41
2023/02/11 11:26:28;;;;;;;113.72;97.42;;;;;;;1.39;100.00;100654.36;1682904;85;25413;-42
2023/02/11 11:29:02;;;;;;;123.40;102.15;;;;;;;1.42;100.00;100653.89;1672407;83;25448;-42
2023/02/11 11:31:36;;;;;;;122.45;101.92;;;;;;;1.44;100.00;100662.45;1682175;85;25796;-43
2023/02/11 11:34:14;;;;;;;120.95;98.80;;;;;;;1.43;100.00;100656.32;1660968;85;25701;-45
2023/02/11 11:36:40;;;;;;;125.55;100.02;;;;;;;1.45;100.00;100656.09;1681913;85;27499;-42
2023/02/11 11:39:30;;;;;;;117.37;96.17;;;;;;;1.46;100.00;100643.02;1661272;85;25461;-43
2023/02/11 11:42:02;;;;;;;116.82;100.47;;;;;;;1.46;100.00;100642.52;1682349;84;25565;-42
2023/02/11 11:44:34;;;;;;;113.97;97.47;;;;;;;1.48;100.00;100635.59;1661259;85;25485;-42